createdAt,value
2023-01-27T00:00:03.827Z,-1.81
2023-01-27T00:01:03.920Z,-1.81
2023-01-27T00:02:03.607Z,-1.81
2023-01-27T00:03:03.439Z,-1.81
2023-01-27T00:04:04.497Z,-1.81
2023-01-27T00:05:04.389Z,-1.81
2023-01-27T00:06:04.318Z,-1.81
2023-01-27T00:07:04.228Z,-1.81
2023-01-27T00:08:04.334Z,-1.81
2023-01-27T00:09:04.232Z,-1.81
2023-01-27T00:10:04.247Z,-1.81
2023-01-27T00:11:04.069Z,-1.81
2023-01-27T00:12:04.084Z,-1.81
2023-01-27T00:13:04.237Z,-1.81
2023-01-27T00:14:04.251Z,-1.81
2023-01-27T00:15:04.083Z,-1.81
2023-01-27T00:16:04.150Z,-1.81
2023-01-27T00:17:03.986Z,-1.81
2023-01-27T00:18:04.149Z,-1.81
2023-01-27T00:19:04.002Z,-1.81
2023-01-27T00:20:04.129Z,-1.81
2023-01-27T00:21:04.074Z,-1.81
2023-01-27T00:22:04.067Z,-1.81
2023-01-27T00:23:04.075Z,-1.81
2023-01-27T00:24:04.040Z,-1.81
2023-01-27T00:25:04.065Z,-1.81
2023-01-27T00:26:04.000Z,-1.81
2023-01-27T00:27:03.918Z,-1.81
2023-01-27T00:28:03.823Z,-1.81
2023-01-27T00:29:03.847Z,-1.81
2023-01-27T00:30:03.668Z,-1.81
2023-01-27T00:31:03.794Z,-1.81
2023-01-27T00:32:03.592Z,-1.81
2023-01-27T00:33:03.522Z,-1.81
2023-01-27T00:34:03.453Z,-1.81
2023-01-27T00:35:03.521Z,-1.81
2023-01-27T00:36:04.476Z,-1.81
2023-01-27T00:37:04.387Z,-1.81
2023-01-27T00:38:04.406Z,-1.81
2023-01-27T00:39:03.438Z,-1.81
2023-01-27T00:40:04.389Z,-1.81
2023-01-27T00:41:04.413Z,-1.81
2023-01-27T00:42:04.406Z,-1.81
2023-01-27T00:43:04.314Z,-1.81
2023-01-27T00:44:04.235Z,-1.81
2023-01-27T00:45:04.230Z,-1.81
2023-01-27T00:46:04.271Z,-1.81
2023-01-27T00:47:04.236Z,-1.81
2023-01-27T00:48:04.143Z,-1.81
2023-01-27T00:49:04.074Z,-1.81
2023-01-27T00:50:04.078Z,-1.81
2023-01-27T00:51:03.906Z,-1.81
2023-01-27T00:52:04.083Z,-1.81
2023-01-27T00:53:03.997Z,-1.81
2023-01-27T00:54:03.856Z,-1.81
2023-01-27T00:55:03.830Z,-1.81
2023-01-27T00:56:03.827Z,-1.81
2023-01-27T00:57:03.758Z,-1.81
2023-01-27T00:58:03.757Z,-1.81
2023-01-27T00:59:03.672Z,-1.81
2023-01-27T01:00:03.583Z,-1.81
2023-01-27T01:01:03.590Z,-1.81
2023-01-27T01:02:03.689Z,-1.81
2023-01-27T01:03:03.503Z,-1.81
2023-01-27T01:04:04.479Z,-1.81
2023-01-27T01:05:04.326Z,-1.75
2023-01-27T01:06:04.388Z,-1.75
2023-01-27T01:07:04.401Z,-1.75
2023-01-27T01:08:04.345Z,-1.81
2023-01-27T01:09:04.324Z,-1.81
2023-01-27T01:10:04.672Z,-1.81
2023-01-27T01:11:03.523Z,-1.75
2023-01-27T01:12:04.398Z,-1.81
2023-01-27T01:13:04.356Z,-1.75
2023-01-27T01:14:04.325Z,-1.81
2023-01-27T01:15:04.241Z,-1.81
2023-01-27T01:16:04.180Z,-1.81
2023-01-27T01:17:04.233Z,-1.81
2023-01-27T01:18:04.067Z,-1.81
2023-01-27T01:19:03.990Z,-1.75
2023-01-27T01:20:04.018Z,-1.75
2023-01-27T01:21:03.830Z,-1.75
2023-01-27T01:22:05.012Z,-1.75
2023-01-27T01:23:03.911Z,-1.75
2023-01-27T01:24:03.856Z,-1.75
2023-01-27T01:25:03.830Z,-1.75
2023-01-27T01:26:03.759Z,-1.75
2023-01-27T01:27:03.665Z,-1.75
2023-01-27T01:28:03.593Z,-1.75
2023-01-27T01:29:03.633Z,-1.75
2023-01-27T01:30:03.505Z,-1.75
2023-01-27T01:31:03.627Z,-1.75
2023-01-27T01:32:03.511Z,-1.75
2023-01-27T01:33:03.537Z,-1.75
2023-01-27T01:34:04.392Z,-1.75
2023-01-27T01:35:04.394Z,-1.75
2023-01-27T01:36:04.305Z,-1.75
2023-01-27T01:37:04.235Z,-1.75
2023-01-27T01:38:04.229Z,-1.75
2023-01-27T01:39:04.304Z,-1.75
2023-01-27T01:40:04.229Z,-1.75
2023-01-27T01:41:04.245Z,-1.75
2023-01-27T01:42:04.067Z,-1.75
2023-01-27T01:43:04.063Z,-1.75
2023-01-27T01:44:04.158Z,-1.75
2023-01-27T01:45:03.987Z,-1.75
2023-01-27T01:46:03.936Z,-1.75
2023-01-27T01:47:03.841Z,-1.75
2023-01-27T01:48:03.834Z,-1.75
2023-01-27T01:49:03.756Z,-1.75
2023-01-27T01:50:03.756Z,-1.75
2023-01-27T01:51:03.684Z,-1.75
2023-01-27T01:52:03.612Z,-1.75
2023-01-27T01:53:03.662Z,-1.75
2023-01-27T01:54:03.509Z,-1.75
2023-01-27T01:55:03.432Z,-1.75
2023-01-27T01:56:04.475Z,-1.75
2023-01-27T01:57:04.314Z,-1.75
2023-01-27T01:58:04.415Z,-1.75
2023-01-27T01:59:04.311Z,-1.75
2023-01-27T02:00:04.145Z,-1.75
2023-01-27T02:01:04.283Z,-1.75
2023-01-27T02:02:04.301Z,-1.75
2023-01-27T02:03:04.235Z,-1.75
2023-01-27T02:04:04.155Z,-1.75
2023-01-27T02:05:04.159Z,-1.75
2023-01-27T02:06:04.079Z,-1.75
2023-01-27T02:07:03.991Z,-1.75
2023-01-27T02:08:04.018Z,-1.75
2023-01-27T02:09:03.912Z,-1.75
2023-01-27T02:10:03.911Z,-1.75
2023-01-27T02:11:03.911Z,-1.75
2023-01-27T02:12:03.911Z,-1.75
2023-01-27T02:13:03.854Z,-1.75
2023-01-27T02:14:03.833Z,-1.75
2023-01-27T02:15:03.754Z,-1.75
2023-01-27T02:16:03.692Z,-1.75
2023-01-27T02:17:03.670Z,-1.75
2023-01-27T02:18:03.596Z,-1.75
2023-01-27T02:19:03.604Z,-1.75
2023-01-27T02:20:03.595Z,-1.75
2023-01-27T02:21:03.590Z,-1.69
2023-01-27T02:22:03.521Z,-1.69
2023-01-27T02:23:04.480Z,-1.69
2023-01-27T02:24:04.400Z,-1.69
2023-01-27T02:25:04.386Z,-1.69
2023-01-27T02:26:03.430Z,-1.69
2023-01-27T02:27:04.413Z,-1.69
2023-01-27T02:28:04.396Z,-1.69
2023-01-27T02:29:04.348Z,-1.69
2023-01-27T02:30:04.235Z,-1.69
2023-01-27T02:31:04.368Z,-1.69
2023-01-27T02:32:04.165Z,-1.69
2023-01-27T02:33:04.076Z,-1.69
2023-01-27T02:34:04.077Z,-1.69
2023-01-27T02:35:04.183Z,-1.69
2023-01-27T02:36:04.168Z,-1.69
2023-01-27T02:37:03.990Z,-1.69
2023-01-27T02:38:03.912Z,-1.69
2023-01-27T02:39:03.909Z,-1.69
2023-01-27T02:40:03.832Z,-1.69
2023-01-27T02:41:03.909Z,-1.69
2023-01-27T02:42:03.912Z,-1.69
2023-01-27T02:43:03.918Z,-1.69
2023-01-27T02:44:03.842Z,-1.69
2023-01-27T02:45:03.756Z,-1.69
2023-01-27T02:46:03.699Z,-1.69
2023-01-27T02:47:03.758Z,-1.69
2023-01-27T02:48:03.669Z,-1.69
2023-01-27T02:49:03.709Z,-1.69
2023-01-27T02:50:03.671Z,-1.69
2023-01-27T02:51:03.702Z,-1.69
2023-01-27T02:52:03.625Z,-1.69
2023-01-27T02:53:03.512Z,-1.69
2023-01-27T02:54:04.404Z,-1.69
2023-01-27T02:55:03.445Z,-1.69
2023-01-27T02:56:03.429Z,-1.69
2023-01-27T02:57:03.432Z,-1.69
2023-01-27T02:58:04.386Z,-1.69
2023-01-27T02:59:04.398Z,-1.69
2023-01-27T03:00:04.398Z,-1.69
2023-01-27T03:01:04.281Z,-1.69
2023-01-27T03:02:04.291Z,-1.62
2023-01-27T03:03:04.143Z,-1.69
2023-01-27T03:04:04.072Z,-1.69
2023-01-27T03:05:04.157Z,-1.62
2023-01-27T03:06:04.065Z,-1.69
2023-01-27T03:07:03.986Z,-1.62
2023-01-27T03:08:04.075Z,-1.69
2023-01-27T03:09:04.000Z,-1.62
2023-01-27T03:10:03.838Z,-1.62
2023-01-27T03:11:03.836Z,-1.62
2023-01-27T03:12:03.744Z,-1.62
2023-01-27T03:13:03.772Z,-1.62
2023-01-27T03:14:03.778Z,-1.62
2023-01-27T03:15:03.676Z,-1.62
2023-01-27T03:16:03.696Z,-1.62
2023-01-27T03:17:03.589Z,-1.62
2023-01-27T03:18:03.501Z,-1.62
2023-01-27T03:19:03.430Z,-1.62
2023-01-27T03:20:03.506Z,-1.62
2023-01-27T03:21:03.430Z,-1.62
2023-01-27T03:22:04.422Z,-1.62
2023-01-27T03:23:03.431Z,-1.62
2023-01-27T03:24:04.489Z,-1.62
2023-01-27T03:25:04.417Z,-1.62
2023-01-27T03:26:04.391Z,-1.62
2023-01-27T03:27:04.383Z,-1.62
2023-01-27T03:28:04.312Z,-1.62
2023-01-27T03:29:04.234Z,-1.62
2023-01-27T03:30:04.233Z,-1.62
2023-01-27T03:31:04.261Z,-1.62
2023-01-27T03:32:04.072Z,-1.62
2023-01-27T03:33:03.993Z,-1.62
2023-01-27T03:34:03.989Z,-1.62
2023-01-27T03:35:04.080Z,-1.62
2023-01-27T03:36:03.919Z,-1.62
2023-01-27T03:37:03.847Z,-1.62
2023-01-27T03:38:03.866Z,-1.62
2023-01-27T03:39:03.747Z,-1.62
2023-01-27T03:40:03.838Z,-1.62
2023-01-27T03:41:03.755Z,-1.62
2023-01-27T03:42:03.677Z,-1.62
2023-01-27T03:43:03.680Z,-1.62
2023-01-27T03:44:03.672Z,-1.62
2023-01-27T03:45:03.591Z,-1.62
2023-01-27T03:46:03.582Z,-1.62
2023-01-27T03:47:04.389Z,-1.62
2023-01-27T03:48:04.416Z,-1.62
2023-01-27T03:49:04.393Z,-1.62
2023-01-27T03:50:04.315Z,-1.62
2023-01-27T03:51:04.328Z,-1.62
2023-01-27T03:52:04.231Z,-1.62
2023-01-27T03:53:05.034Z,-1.56
2023-01-27T03:54:04.064Z,-1.62
2023-01-27T03:55:04.028Z,-1.62
2023-01-27T03:56:03.911Z,-1.62
2023-01-27T03:57:03.908Z,-1.56
2023-01-27T03:58:03.853Z,-1.56
2023-01-27T03:59:03.836Z,-1.56
2023-01-27T04:00:03.829Z,-1.56
2023-01-27T04:01:03.759Z,-1.56
2023-01-27T04:02:03.845Z,-1.56
2023-01-27T04:03:03.831Z,-1.56
2023-01-27T04:04:03.666Z,-1.56
2023-01-27T04:05:03.589Z,-1.56
2023-01-27T04:06:03.512Z,-1.56
2023-01-27T04:07:03.534Z,-1.56
2023-01-27T04:08:04.393Z,-1.56
2023-01-27T04:09:04.331Z,-1.56
2023-01-27T04:10:04.312Z,-1.56
2023-01-27T04:11:04.311Z,-1.56
2023-01-27T04:12:04.234Z,-1.56
2023-01-27T04:13:04.246Z,-1.56
2023-01-27T04:14:04.195Z,-1.56
2023-01-27T04:15:04.176Z,-1.56
2023-01-27T04:16:04.242Z,-1.56
2023-01-27T04:17:04.232Z,-1.56
2023-01-27T04:18:04.181Z,-1.56
2023-01-27T04:19:04.238Z,-1.56
2023-01-27T04:20:04.146Z,-1.56
2023-01-27T04:21:04.149Z,-1.50
2023-01-27T04:22:04.159Z,-1.56
2023-01-27T04:23:04.156Z,-1.56
2023-01-27T04:24:04.151Z,-1.50
2023-01-27T04:25:04.066Z,-1.56
2023-01-27T04:26:04.067Z,-1.56
2023-01-27T04:27:04.025Z,-1.50
2023-01-27T04:28:04.080Z,-1.50
2023-01-27T04:29:03.922Z,-1.56
2023-01-27T04:30:03.909Z,-1.50
2023-01-27T04:31:03.924Z,-1.50
2023-01-27T04:32:03.834Z,-1.50
2023-01-27T04:33:03.858Z,-1.50
2023-01-27T04:34:03.839Z,-1.50
2023-01-27T04:35:04.157Z,-1.50
2023-01-27T04:36:04.091Z,-1.50
2023-01-27T04:37:04.073Z,-1.50
2023-01-27T04:38:04.075Z,-1.50
2023-01-27T04:39:04.009Z,-1.50
2023-01-27T04:40:03.989Z,-1.50
2023-01-27T04:41:03.917Z,-1.50
2023-01-27T04:42:03.995Z,-1.50
2023-01-27T04:43:03.909Z,-1.50
2023-01-27T04:44:03.913Z,-1.50
2023-01-27T04:45:03.833Z,-1.50
2023-01-27T04:46:03.821Z,-1.50
2023-01-27T04:47:03.676Z,-1.50
2023-01-27T04:48:03.584Z,-1.50
2023-01-27T04:49:03.513Z,-1.50
2023-01-27T04:50:04.391Z,-1.50
2023-01-27T04:51:04.386Z,-1.50
2023-01-27T04:52:04.321Z,-1.50
2023-01-27T04:53:04.307Z,-1.50
2023-01-27T04:54:04.392Z,-1.50
2023-01-27T04:55:04.305Z,-1.50
2023-01-27T04:56:04.319Z,-1.50
2023-01-27T04:57:04.181Z,-1.50
2023-01-27T04:58:04.244Z,-1.50
2023-01-27T04:59:04.148Z,-1.50
2023-01-27T05:00:04.087Z,-1.44
2023-01-27T05:01:03.987Z,-1.44
2023-01-27T05:02:04.109Z,-1.44
2023-01-27T05:03:04.005Z,-1.44
2023-01-27T05:04:03.927Z,-1.44
2023-01-27T05:05:03.835Z,-1.50
2023-01-27T05:06:03.837Z,-1.44
2023-01-27T05:07:03.772Z,-1.44
2023-01-27T05:08:03.679Z,-1.44
2023-01-27T05:09:03.590Z,-1.44
2023-01-27T05:10:03.675Z,-1.44
2023-01-27T05:11:03.705Z,-1.44
2023-01-27T05:12:03.597Z,-1.44
2023-01-27T05:13:03.593Z,-1.44
2023-01-27T05:14:03.515Z,-1.44
2023-01-27T05:15:03.431Z,-1.44
2023-01-27T05:16:03.557Z,-1.44
2023-01-27T05:17:03.617Z,-1.44
2023-01-27T05:18:03.448Z,-1.44
2023-01-27T05:19:03.510Z,-1.44
2023-01-27T05:20:04.392Z,-1.44
2023-01-27T05:21:04.319Z,-1.44
2023-01-27T05:22:04.401Z,-1.44
2023-01-27T05:23:04.317Z,-1.44
2023-01-27T05:24:04.353Z,-1.44
2023-01-27T05:25:04.403Z,-1.44
2023-01-27T05:26:03.434Z,-1.44
2023-01-27T05:27:04.403Z,-1.44
2023-01-27T05:28:04.502Z,-1.44
2023-01-27T05:29:04.429Z,-1.44
2023-01-27T05:30:04.392Z,-1.44
2023-01-27T05:31:05.412Z,-1.44
2023-01-27T05:32:04.311Z,-1.44
2023-01-27T05:33:04.283Z,-1.50
2023-01-27T05:34:04.149Z,-1.50
2023-01-27T05:35:04.155Z,-1.50
2023-01-27T05:36:04.068Z,-1.44
2023-01-27T05:37:03.993Z,-1.44
2023-01-27T05:38:04.069Z,-1.50
2023-01-27T05:39:04.019Z,-1.44
2023-01-27T05:40:03.906Z,-1.44
2023-01-27T05:41:03.929Z,-1.44
2023-01-27T05:42:04.104Z,-1.50
2023-01-27T05:43:04.012Z,-1.50
2023-01-27T05:44:03.940Z,-1.50
2023-01-27T05:45:04.061Z,-1.50
2023-01-27T05:46:03.972Z,-1.50
2023-01-27T05:47:03.998Z,-1.56
2023-01-27T05:48:03.920Z,-1.56
2023-01-27T05:49:03.829Z,-1.56
2023-01-27T05:50:03.913Z,-1.50
2023-01-27T05:51:03.747Z,-1.50
2023-01-27T05:52:03.676Z,-1.50
2023-01-27T05:53:03.666Z,-1.50
2023-01-27T05:54:03.666Z,-1.50
2023-01-27T05:55:03.772Z,-1.50
2023-01-27T05:56:03.681Z,-1.50
2023-01-27T05:57:03.589Z,-1.50
2023-01-27T05:58:03.591Z,-1.44
2023-01-27T05:59:03.678Z,-1.50
2023-01-27T06:00:03.590Z,-1.50
2023-01-27T06:01:03.583Z,-1.50
2023-01-27T06:02:03.726Z,-1.50
2023-01-27T06:03:03.658Z,-1.50
2023-01-27T06:04:03.678Z,-1.50
2023-01-27T06:05:03.526Z,-1.50
2023-01-27T06:06:03.431Z,-1.50
2023-01-27T06:07:03.432Z,-1.50
2023-01-27T06:08:03.433Z,-1.50
2023-01-27T06:09:04.445Z,-1.50
2023-01-27T06:10:04.341Z,-1.50
2023-01-27T06:11:04.313Z,-1.50
2023-01-27T06:12:04.246Z,-1.44
2023-01-27T06:13:04.327Z,-1.44
2023-01-27T06:14:04.274Z,-1.50
2023-01-27T06:15:04.210Z,-1.50
2023-01-27T06:16:04.353Z,-1.44
2023-01-27T06:17:05.197Z,-1.44
2023-01-27T06:18:04.152Z,-1.50
2023-01-27T06:19:04.233Z,-1.50
2023-01-27T06:20:03.505Z,-1.50
2023-01-27T06:21:03.515Z,-1.50
2023-01-27T06:22:03.506Z,-1.50
2023-01-27T06:23:03.675Z,-1.50
2023-01-27T06:24:03.536Z,-1.50
2023-01-27T06:25:03.437Z,-1.50
2023-01-27T06:26:03.436Z,-1.50
2023-01-27T06:27:03.431Z,-1.44
2023-01-27T06:28:03.502Z,-1.50
2023-01-27T06:29:04.405Z,-1.44
2023-01-27T06:30:04.391Z,-1.50
2023-01-27T06:31:03.750Z,-1.56
2023-01-27T06:32:03.804Z,-1.56
2023-01-27T06:33:03.662Z,-1.62
2023-01-27T06:34:03.591Z,-1.56
2023-01-27T06:35:04.070Z,-1.62
2023-01-27T06:36:04.173Z,-1.62
2023-01-27T06:37:04.221Z,-1.62
2023-01-27T06:38:04.075Z,-1.69
2023-01-27T06:39:03.915Z,-1.69
2023-01-27T06:40:03.917Z,-1.69
2023-01-27T06:41:03.908Z,-1.69
2023-01-27T06:42:03.912Z,-1.69
2023-01-27T06:43:03.831Z,-1.69
2023-01-27T06:44:03.834Z,-1.69
2023-01-27T06:45:03.863Z,-1.62
2023-01-27T06:46:05.811Z,-1.62
2023-01-27T06:47:03.835Z,-1.62
2023-01-27T06:48:03.833Z,-1.62
2023-01-27T06:49:03.668Z,-1.62
2023-01-27T06:50:03.767Z,-1.62
2023-01-27T06:51:03.610Z,-1.62
2023-01-27T06:52:03.597Z,-1.62
2023-01-27T06:53:03.505Z,-1.62
2023-01-27T06:54:03.525Z,-1.62
2023-01-27T06:55:04.416Z,-1.62
2023-01-27T06:56:04.416Z,-1.69
2023-01-27T06:57:04.401Z,-1.69
2023-01-27T06:58:04.160Z,-1.69
2023-01-27T06:59:04.143Z,-1.69
2023-01-27T07:00:04.342Z,-1.69
2023-01-27T07:01:04.080Z,-1.69
2023-01-27T07:02:04.027Z,-1.69
2023-01-27T07:03:04.010Z,-1.69
2023-01-27T07:04:03.999Z,-1.62
2023-01-27T07:05:04.003Z,-1.62
2023-01-27T07:06:03.987Z,-1.69
2023-01-27T07:07:03.837Z,-1.69
2023-01-27T07:08:03.751Z,-1.69
2023-01-27T07:09:03.750Z,-1.69
2023-01-27T07:10:03.763Z,-1.69
2023-01-27T07:11:03.670Z,-1.62
2023-01-27T07:12:03.667Z,-1.69
2023-01-27T07:13:03.679Z,-1.69
2023-01-27T07:14:03.596Z,-1.69
2023-01-27T07:15:03.431Z,-1.69
2023-01-27T07:16:04.412Z,-1.69
2023-01-27T07:17:04.410Z,-1.69
2023-01-27T07:18:04.428Z,-1.69
2023-01-27T07:19:04.403Z,-1.69
2023-01-27T07:20:04.327Z,-1.69
2023-01-27T07:21:04.235Z,-1.75
2023-01-27T07:22:04.320Z,-1.75
2023-01-27T07:23:04.223Z,-1.75
2023-01-27T07:24:04.242Z,-1.69
2023-01-27T07:25:04.153Z,-1.69
2023-01-27T07:26:07.732Z,-1.69
2023-01-27T07:27:04.081Z,-1.69
2023-01-27T07:28:04.029Z,-1.69
2023-01-27T07:29:03.996Z,-1.75
2023-01-27T07:30:03.827Z,-1.69
2023-01-27T07:31:03.820Z,-1.69
2023-01-27T07:32:03.810Z,-1.69
2023-01-27T07:33:03.694Z,-1.69
2023-01-27T07:34:03.587Z,-1.69
2023-01-27T07:35:03.596Z,-1.69
2023-01-27T07:36:03.517Z,-1.69
2023-01-27T07:37:04.396Z,-1.69
2023-01-27T07:38:04.404Z,-1.69
2023-01-27T07:39:04.396Z,-1.69
2023-01-27T07:40:04.226Z,-1.69
2023-01-27T07:41:04.327Z,-1.62
2023-01-27T07:42:04.304Z,-1.62
2023-01-27T07:43:04.263Z,-1.62
2023-01-27T07:44:04.158Z,-1.62
2023-01-27T07:45:04.158Z,-1.69
2023-01-27T07:46:04.281Z,-1.69
2023-01-27T07:47:04.155Z,-1.69
2023-01-27T07:48:04.144Z,-1.69
2023-01-27T07:49:04.069Z,-1.69
2023-01-27T07:50:03.999Z,-1.69
2023-01-27T07:51:03.906Z,-1.69
2023-01-27T07:52:04.396Z,-1.69
2023-01-27T07:53:04.406Z,-1.69
2023-01-27T07:54:04.319Z,-1.69
2023-01-27T07:55:04.317Z,-1.69
2023-01-27T07:56:04.145Z,-1.62
2023-01-27T07:57:04.145Z,-1.62
2023-01-27T07:58:03.993Z,-1.62
2023-01-27T07:59:03.905Z,-1.62
2023-01-27T08:00:03.921Z,-1.62
2023-01-27T08:01:03.878Z,-1.62
2023-01-27T08:02:03.835Z,-1.62
2023-01-27T08:03:03.860Z,-1.56
2023-01-27T08:04:03.721Z,-1.56
2023-01-27T08:05:03.588Z,-1.56
2023-01-27T08:06:03.669Z,-1.56
2023-01-27T08:07:03.649Z,-1.56
2023-01-27T08:08:03.602Z,-1.56
2023-01-27T08:09:03.592Z,-1.62
2023-01-27T08:10:03.513Z,-1.62
2023-01-27T08:11:03.513Z,-1.62
2023-01-27T08:12:04.432Z,-1.62
2023-01-27T08:13:04.528Z,-1.62
2023-01-27T08:14:03.429Z,-1.62
2023-01-27T08:15:04.407Z,-1.62
2023-01-27T08:16:04.307Z,-1.62
2023-01-27T08:17:04.334Z,-1.62
2023-01-27T08:18:04.393Z,-1.62
2023-01-27T08:19:04.312Z,-1.62
2023-01-27T08:20:04.240Z,-1.69
2023-01-27T08:21:04.153Z,-1.62
2023-01-27T08:22:04.163Z,-1.62
2023-01-27T08:23:04.067Z,-1.62
2023-01-27T08:24:04.093Z,-1.62
2023-01-27T08:25:03.941Z,-1.62
2023-01-27T08:26:03.909Z,-1.62
2023-01-27T08:27:04.341Z,-1.62
2023-01-27T08:28:03.996Z,-1.56
2023-01-27T08:29:03.985Z,-1.56
2023-01-27T08:30:03.911Z,-1.56
2023-01-27T08:31:03.905Z,-1.50
2023-01-27T08:32:03.920Z,-1.56
2023-01-27T08:33:03.747Z,-1.50
2023-01-27T08:34:03.672Z,-1.50
2023-01-27T08:35:03.756Z,-1.44
2023-01-27T08:36:03.679Z,-1.44
2023-01-27T08:37:03.596Z,-1.44
2023-01-27T08:38:03.520Z,-1.44
2023-01-27T08:39:03.430Z,-1.44
2023-01-27T08:40:03.446Z,-1.38
2023-01-27T08:41:03.425Z,-1.38
2023-01-27T08:42:03.515Z,-1.38
2023-01-27T08:43:05.110Z,-1.38
2023-01-27T08:44:04.318Z,-1.31
2023-01-27T08:45:04.321Z,-1.31
2023-01-27T08:46:04.376Z,-1.25
2023-01-27T08:47:04.324Z,-1.25
2023-01-27T08:48:04.229Z,-1.25
2023-01-27T08:49:04.150Z,-1.25
2023-01-27T08:50:04.067Z,-1.25
2023-01-27T08:51:04.067Z,-1.19
2023-01-27T08:52:04.153Z,-1.19
2023-01-27T08:53:04.086Z,-1.19
2023-01-27T08:54:03.992Z,-1.12
2023-01-27T08:55:04.080Z,-1.12
2023-01-27T08:56:04.003Z,-1.12
2023-01-27T08:57:04.001Z,-1.12
2023-01-27T08:58:03.909Z,-1.12
2023-01-27T08:59:03.918Z,-1.12
2023-01-27T09:00:03.759Z,-1.12
2023-01-27T09:01:03.768Z,-1.12
2023-01-27T09:02:03.751Z,-1.12
2023-01-27T09:03:03.590Z,-1.12
2023-01-27T09:04:03.599Z,-1.12
2023-01-27T09:05:03.516Z,-1.06
2023-01-27T09:06:04.388Z,-1.06
2023-01-27T09:07:04.323Z,-1.06
2023-01-27T09:08:04.228Z,-1.00
2023-01-27T09:09:04.238Z,-1.00
2023-01-27T09:10:13.971Z,-1.00
2023-01-27T09:11:04.000Z,-1.06
2023-01-27T09:12:03.988Z,-1.06
2023-01-27T09:13:03.924Z,-1.00
2023-01-27T09:14:03.848Z,-1.00
2023-01-27T09:15:03.681Z,-1.00
2023-01-27T09:16:03.736Z,-1.00
2023-01-27T09:17:03.745Z,-1.00
2023-01-27T09:18:06.239Z,-1.00
2023-01-27T09:19:03.427Z,-1.00
2023-01-27T09:20:04.351Z,-1.00
2023-01-27T09:21:04.311Z,-1.00
2023-01-27T09:22:04.384Z,-1.00
2023-01-27T09:23:04.339Z,-1.00
2023-01-27T09:24:04.247Z,-1.00
2023-01-27T09:25:04.250Z,-1.00
2023-01-27T09:26:04.155Z,-1.00
2023-01-27T09:27:03.992Z,-0.94
2023-01-27T09:28:03.996Z,-0.94
2023-01-27T09:29:03.910Z,-0.94
2023-01-27T09:30:03.905Z,-0.94
2023-01-27T09:31:03.955Z,-0.94
2023-01-27T09:32:04.027Z,-0.94
2023-01-27T09:33:03.836Z,-0.88
2023-01-27T09:34:03.744Z,-0.81
2023-01-27T09:35:03.597Z,-0.81
2023-01-27T09:36:03.539Z,-0.81
2023-01-27T09:37:03.431Z,-0.81
2023-01-27T09:38:03.465Z,-0.81
2023-01-27T09:39:04.328Z,-0.81
2023-01-27T09:40:04.404Z,-0.75
2023-01-27T09:41:04.310Z,-0.75
2023-01-27T09:42:04.238Z,-0.75
2023-01-27T09:43:04.254Z,-0.75
2023-01-27T09:44:04.232Z,-0.69
2023-01-27T09:45:04.162Z,-0.62
2023-01-27T09:46:04.083Z,-0.62
2023-01-27T09:47:03.999Z,-0.56
2023-01-27T09:48:04.027Z,-0.56
2023-01-27T09:49:03.827Z,-0.50
2023-01-27T09:50:03.750Z,-0.50
2023-01-27T09:51:04.206Z,-0.50
2023-01-27T09:52:03.611Z,-0.50
2023-01-27T09:53:03.676Z,-0.44
2023-01-27T09:54:03.503Z,-0.44
2023-01-27T09:55:03.616Z,-0.44
2023-01-27T09:56:03.684Z,-0.38
2023-01-27T09:57:03.522Z,-0.38
2023-01-27T09:58:04.498Z,-0.38
2023-01-27T09:59:04.309Z,-0.31
2023-01-27T10:00:04.328Z,-0.31
2023-01-27T10:01:04.306Z,-0.31
2023-01-27T10:02:04.319Z,-0.31
2023-01-27T10:03:04.315Z,-0.25
2023-01-27T10:04:04.312Z,-0.25
2023-01-27T10:05:04.406Z,-0.19
2023-01-27T10:06:04.348Z,-0.19
2023-01-27T10:07:04.310Z,-0.19
2023-01-27T10:08:04.231Z,-0.19
2023-01-27T10:09:04.159Z,-0.12
2023-01-27T10:10:04.146Z,-0.12
2023-01-27T10:11:04.069Z,-0.12
2023-01-27T10:12:04.000Z,-0.06
2023-01-27T10:13:04.079Z,-0.06
2023-01-27T10:14:04.075Z,-0.06
2023-01-27T10:15:03.998Z,-0.06
2023-01-27T10:16:04.073Z,-0.06
2023-01-27T10:17:04.011Z,-0.06
2023-01-27T10:18:03.991Z,0.00
2023-01-27T10:19:04.079Z,0.00
2023-01-27T10:20:04.083Z,0.00
2023-01-27T10:21:04.074Z,0.06
2023-01-27T10:22:04.065Z,0.00
2023-01-27T10:23:03.997Z,0.00
2023-01-27T10:24:04.059Z,0.06
2023-01-27T10:25:03.923Z,0.06
2023-01-27T10:26:03.911Z,0.06
2023-01-27T10:27:03.904Z,0.06
2023-01-27T10:28:03.841Z,0.06
2023-01-27T10:29:03.841Z,0.12
2023-01-27T10:30:04.326Z,0.12
2023-01-27T10:31:04.289Z,0.12
2023-01-27T10:32:04.231Z,0.12
2023-01-27T10:33:04.249Z,0.12
2023-01-27T10:34:04.240Z,0.12
2023-01-27T10:35:04.064Z,0.19
2023-01-27T10:36:04.155Z,0.19
2023-01-27T10:37:03.997Z,0.25
2023-01-27T10:38:04.068Z,0.25
2023-01-27T10:39:04.150Z,0.25
2023-01-27T10:40:04.105Z,0.25
2023-01-27T10:41:04.001Z,0.25
2023-01-27T10:42:03.832Z,0.25
2023-01-27T10:43:03.841Z,0.25
2023-01-27T10:44:03.664Z,0.25
2023-01-27T10:45:03.633Z,0.25
2023-01-27T10:46:03.674Z,0.25
2023-01-27T10:47:03.509Z,0.25
2023-01-27T10:48:04.385Z,0.31
2023-01-27T10:49:04.383Z,0.31
2023-01-27T10:50:04.418Z,0.31
2023-01-27T10:51:04.315Z,0.31
2023-01-27T10:52:04.316Z,0.31
2023-01-27T10:53:04.142Z,0.31
2023-01-27T10:54:04.069Z,0.31
2023-01-27T10:55:04.021Z,0.31
2023-01-27T10:56:03.917Z,0.31
2023-01-27T10:57:03.916Z,0.31
2023-01-27T10:58:03.832Z,0.31
2023-01-27T10:59:03.790Z,0.31
2023-01-27T11:00:51.673Z,0.31
2023-01-27T11:01:20.149Z,0.31
2023-01-27T11:02:04.439Z,0.31
2023-01-27T11:03:04.235Z,0.31
2023-01-27T11:04:04.269Z,0.31
2023-01-27T11:05:04.068Z,0.31
2023-01-27T11:06:03.995Z,0.31
2023-01-27T11:07:03.915Z,0.31
2023-01-27T11:08:03.998Z,0.31
2023-01-27T11:09:03.835Z,0.38
2023-01-27T11:10:03.829Z,0.38
2023-01-27T11:11:03.835Z,0.38
2023-01-27T11:12:03.845Z,0.38
2023-01-27T11:13:03.751Z,0.38
2023-01-27T11:14:03.600Z,0.38
2023-01-27T11:15:03.677Z,0.38
2023-01-27T11:16:03.592Z,0.38
2023-01-27T11:17:03.594Z,0.44
2023-01-27T11:18:03.509Z,0.44
2023-01-27T11:19:03.431Z,0.44
2023-01-27T11:20:04.394Z,0.44
2023-01-27T11:21:04.399Z,0.50
2023-01-27T11:22:08.471Z,0.50
2023-01-27T11:23:04.401Z,0.50
2023-01-27T11:24:04.438Z,0.50
2023-01-27T11:25:04.310Z,0.56
2023-01-27T11:26:04.394Z,0.56
2023-01-27T11:27:04.390Z,0.56
2023-01-27T11:28:04.326Z,0.62
2023-01-27T11:29:04.391Z,0.62
2023-01-27T11:30:04.458Z,0.69
2023-01-27T11:31:04.454Z,0.69
2023-01-27T11:32:04.502Z,0.69
2023-01-27T11:33:04.310Z,0.75
2023-01-27T11:34:04.474Z,0.75
2023-01-27T11:35:04.398Z,0.75
2023-01-27T11:36:04.233Z,0.75
2023-01-27T11:37:04.316Z,0.75
2023-01-27T11:38:14.776Z,0.75
2023-01-27T11:39:04.251Z,0.75
2023-01-27T11:40:04.260Z,0.69
2023-01-27T11:41:04.157Z,0.69
2023-01-27T11:42:04.156Z,0.69
2023-01-27T11:43:04.146Z,0.69
2023-01-27T11:44:04.069Z,0.69
2023-01-27T11:45:04.059Z,0.69
2023-01-27T11:46:03.996Z,0.69
2023-01-27T11:47:04.007Z,0.69
2023-01-27T11:48:03.915Z,0.69
2023-01-27T11:49:03.831Z,0.69
2023-01-27T11:50:03.834Z,0.62
2023-01-27T11:51:03.757Z,0.62
2023-01-27T11:52:03.756Z,0.62
2023-01-27T11:53:03.757Z,0.62
2023-01-27T11:54:03.755Z,0.62
2023-01-27T11:55:03.668Z,0.62
2023-01-27T11:56:03.664Z,0.56
2023-01-27T11:57:04.394Z,0.56
2023-01-27T11:58:04.391Z,0.56
2023-01-27T11:59:03.434Z,0.56
2023-01-27T12:00:03.432Z,0.56
2023-01-27T12:01:04.476Z,0.56
2023-01-27T12:02:04.312Z,0.50
2023-01-27T12:03:04.377Z,0.50
2023-01-27T12:04:04.490Z,0.50
2023-01-27T12:05:04.392Z,0.50
2023-01-27T12:06:04.232Z,0.50
2023-01-27T12:07:04.155Z,0.50
2023-01-27T12:08:04.076Z,0.50
2023-01-27T12:09:04.154Z,0.50
2023-01-27T12:10:04.265Z,0.50
2023-01-27T12:11:04.067Z,0.50
2023-01-27T12:12:03.991Z,0.50
2023-01-27T12:13:03.991Z,0.50
2023-01-27T12:14:03.833Z,0.50
2023-01-27T12:15:03.753Z,0.50
2023-01-27T12:16:03.754Z,0.50
2023-01-27T12:17:03.743Z,0.50
2023-01-27T12:18:03.671Z,0.44
2023-01-27T12:19:03.605Z,0.50
2023-01-27T12:20:03.427Z,0.50
2023-01-27T12:21:04.403Z,0.44
2023-01-27T12:22:04.320Z,0.44
2023-01-27T12:23:04.311Z,0.50
2023-01-27T12:24:04.258Z,0.50
2023-01-27T12:25:04.236Z,0.50
2023-01-27T12:26:04.156Z,0.50
2023-01-27T12:27:04.070Z,0.50
2023-01-27T12:28:03.990Z,0.56
2023-01-27T12:29:04.081Z,0.56
2023-01-27T12:30:04.070Z,0.56
2023-01-27T12:31:04.108Z,0.62
2023-01-27T12:32:04.118Z,0.62
2023-01-27T12:33:03.910Z,0.62
2023-01-27T12:34:03.838Z,0.69
2023-01-27T12:35:03.753Z,0.69
2023-01-27T12:36:03.674Z,0.69
2023-01-27T12:37:03.672Z,0.75
2023-01-27T12:38:03.573Z,0.75
2023-01-27T12:39:03.440Z,0.75
2023-01-27T12:40:03.669Z,0.75
2023-01-27T12:41:03.673Z,0.81
2023-01-27T12:42:03.754Z,0.81
2023-01-27T12:43:03.669Z,0.88
2023-01-27T12:44:03.906Z,0.88
2023-01-27T12:45:03.754Z,0.94
2023-01-27T12:46:03.936Z,0.94
2023-01-27T12:47:03.769Z,0.94
2023-01-27T12:48:03.682Z,1.00
2023-01-27T12:49:03.670Z,1.00
2023-01-27T12:50:03.673Z,1.00
2023-01-27T12:51:03.668Z,1.06
2023-01-27T12:52:03.586Z,1.12
2023-01-27T12:53:03.592Z,1.12
2023-01-27T12:54:03.593Z,1.12
2023-01-27T12:55:03.516Z,1.19
2023-01-27T12:56:04.314Z,1.19
2023-01-27T12:57:04.311Z,1.25